Time;durP1;ratioP1;P1;durP2;ratioP2;P2;SDS_P1;SDS_P2;PMS_P1;PMS_P2;Temp;Humidity;BMP_temperature;BMP_pressure;BME280_temperature;BME280_humidity;BME280_pressure;Samples;Min_cycle;Max_cycle;Signal;HPM_P1;HPM_P2
2021/09/30 00:01:15;;;;;;;;;;;;;;;8.44;100.00;101339.69;4994652;28;20032;-73
2021/09/30 00:03:42;;;;;;;;;;;;;;;8.42;100.00;101342.50;4994920;28;20016;-72
2021/09/30 00:06:08;;;;;;;;;;;;;;;8.43;100.00;101344.25;4994791;28;19948;-72
2021/09/30 00:08:34;;;;;;;;;;;;;;;8.36;100.00;101342.84;4994810;28;20441;-73
2021/09/30 00:11:06;;;;;;;;;;;;;;;8.28;100.00;101340.63;4994593;28;20385;-72
2021/09/30 00:13:42;;;;;;;;;;;;;;;8.19;100.00;101347.50;4994484;28;19926;-73
2021/09/30 00:32:45;;;;;;;;;;;;;;;8.15;100.00;101359.47;4993145;28;20301;-72
2021/09/30 00:35:35;;;;;;;;;;;;;;;8.13;100.00;101355.97;4993289;28;19936;-72
2021/09/30 00:41:07;;;;;;;;;;;;;;;8.04;100.00;101364.63;4992992;28;20511;-72
2021/09/30 00:46:23;;;;;;;;;;;;;;;8.11;100.00;101371.44;4994034;28;19937;-73
2021/09/30 00:49:00;;;;;;;;;;;;;;;8.14;100.00;101363.13;4992652;28;20029;-72
2021/09/30 00:51:32;;;;;;;;;;;;;;;8.11;100.00;101366.03;4992796;28;19930;-72
2021/09/30 00:54:24;;;;;;;;;;;;;;;8.07;100.00;101369.88;4993879;28;19937;-72
2021/09/30 02:18:31;;;;;;;;;;;;;;;7.72;100.00;101402.56;4957027;28;19980;-73
2021/09/30 02:21:14;;;;;;;;;;;;;;;7.73;100.00;101401.59;4991175;28;19926;-72
2021/09/30 02:24:00;;;;;;;;;;;;;;;7.73;100.00;101401.59;4991364;28;20292;-72
2021/09/30 02:26:53;;;;;;;;;;;;;;;7.77;100.00;101403.16;4991405;28;19926;-72
2021/09/30 02:29:28;;;;;;;;;;;;;;;7.67;100.00;101407.34;4991187;28;19930;-72
2021/09/30 02:59:42;;;;;;;;;;;;;;;7.70;100.00;101426.13;4990809;28;19932;-72
2021/09/30 03:02:09;;;;;;;;;;;;;;;7.68;100.00;101419.91;4990754;28;19930;-72
2021/09/30 03:04:38;;;;;;;;;;;;;;;7.69;100.00;101432.47;4992071;28;20385;-72
2021/09/30 03:07:06;;;;;;;;;;;;;;;7.69;100.00;101436.03;4990831;28;19926;-73
2021/09/30 03:09:38;;;;;;;;;;;;;;;7.70;100.00;101439.63;4990773;28;19937;-73
2021/09/30 03:12:07;;;;;;;;;;;;;;;7.70;100.00;101434.22;4990803;28;19984;-72
2021/09/30 03:14:39;;;;;;;;;;;;;;;7.65;100.00;101430.91;4990740;28;19926;-72
2021/09/30 03:17:07;;;;;;;;;;;;;;;7.60;100.00;101439.25;4990460;28;19934;-73
2021/09/30 03:19:50;;;;;;;;;;;;;;;7.56;100.00;101436.84;4990782;28;19930;-72
2021/09/30 03:22:18;;;;;;;;;;;;;;;7.61;100.00;101438.31;4990728;28;19926;-72
2021/09/30 03:24:47;;;;;;;;;;;;;;;7.65;100.00;101434.47;4990736;28;19957;-73
2021/09/30 03:27:14;;;;;;;;;;;;;;;7.66;100.00;101443.47;4991654;28;19937;-72
2021/09/30 03:29:40;;;;;;;;;;;;;;;7.68;100.00;101438.84;4990571;28;19934;-72
2021/09/30 03:32:07;;;;;;;;;;;;;;;7.67;100.00;101450.59;4990482;28;20389;-73
2021/09/30 03:34:54;;;;;;;;;;;;;;;7.73;100.00;101449.41;4991788;28;20433;-73
2021/09/30 03:37:25;;;;;;;;;;;;;;;7.68;100.00;101457.75;4990568;28;19926;-72
2021/09/30 03:39:51;;;;;;;;;;;;;;;7.67;100.00;101456.00;4992460;28;19956;-72
2021/09/30 03:42:18;;;;;;;;;;;;;;;7.69;100.00;101454.09;4990462;28;19926;-72
2021/09/30 03:44:51;;;;;;;;;;;;;;;7.68;100.00;101457.75;4990451;28;20308;-72
2021/09/30 03:47:18;;;;;;;;;;;;;;;7.64;100.00;101456.19;4990996;28;19930;-73
2021/09/30 03:49:57;;;;;;;;;;;;;;;7.62;100.00;101464.38;4993893;28;19948;-72
2021/09/30 03:52:37;;;;;;;;;;;;;;;7.64;100.00;101464.28;4994039;28;19926;-72
2021/09/30 03:55:21;;;;;;;;;;;;;;;7.63;100.00;101467.94;4993780;28;19933;-72
2021/09/30 03:59:06;;;;;;;;;;;;;;;7.60;100.00;101469.00;4993712;28;20427;-72
2021/09/30 04:00:37;;;;;;;;;;;;;;;7.55;100.00;101476.50;4977254;28;20294;-72
2021/09/30 04:03:03;;;;;;;;;;;;;;;7.51;100.00;101478.50;4993668;28;20508;-72
2021/09/30 04:05:33;;;;;;;;;;;;;;;7.47;100.00;101482.34;4993749;28;19925;-72
2021/09/30 04:08:00;;;;;;;;;;;;;;;7.42;100.00;101487.13;4993254;28;19926;-72
2021/09/30 04:10:27;;;;;;;;;;;;;;;7.43;100.00;101488.88;4993621;28;19926;-73
2021/09/30 04:12:53;;;;;;;;;;;;;;;7.49;100.00;101487.66;4993363;28;19953;-72
2021/09/30 04:15:20;;;;;;;;;;;;;;;7.53;100.00;101481.97;4993591;28;19926;-72
2021/09/30 04:17:47;;;;;;;;;;;;;;;7.54;100.00;101482.88;4993186;28;19926;-72
2021/09/30 04:20:16;;;;;;;;;;;;;;;7.54;100.00;101480.16;4993302;28;20033;-72
2021/09/30 04:22:43;;;;;;;;;;;;;;;7.50;100.00;101484.84;4993466;28;20017;-72
2021/09/30 04:25:11;;;;;;;;;;;;;;;7.47;100.00;101495.84;4993119;28;20045;-72
2021/09/30 04:27:37;;;;;;;;;;;;;;;7.47;100.00;101493.16;4993244;28;20369;-72
2021/09/30 04:30:04;;;;;;;;;;;;;;;7.43;100.00;101499.69;4993065;28;19929;-71
2021/09/30 04:32:38;;;;;;;;;;;;;;;7.33;100.00;101496.59;4998306;28;19925;-73
2021/09/30 04:35:05;;;;;;;;;;;;;;;7.32;100.00;101500.28;5002900;28;19934;-72
2021/09/30 04:37:31;;;;;;;;;;;;;;;7.31;100.00;101500.34;5011651;28;19960;-72
2021/09/30 04:39:58;;;;;;;;;;;;;;;7.30;100.00;101504.03;5007267;28;19926;-72
2021/09/30 04:42:26;;;;;;;;;;;;;;;7.34;100.00;101503.75;4993724;28;19969;-72
2021/09/30 04:44:52;;;;;;;;;;;;;;;7.40;100.00;101507.94;4993101;28;19933;-73
2021/09/30 04:47:18;;;;;;;;;;;;;;;7.45;100.00;101503.16;4999026;28;19929;-72
2021/09/30 04:49:48;;;;;;;;;;;;;;;7.55;100.00;101506.22;5012219;28;19980;-72
2021/09/30 04:52:14;;;;;;;;;;;;;;;7.60;100.00;101505.97;5012357;28;19926;-73
2021/09/30 04:54:42;;;;;;;;;;;;;;;7.60;100.00;101506.81;5012326;28;19929;-72
2021/09/30 04:57:08;;;;;;;;;;;;;;;7.59;100.00;101504.22;5011855;28;19984;-73
2021/09/30 04:59:38;;;;;;;;;;;;;;;7.58;100.00;101514.16;5012088;28;20282;-73
2021/09/30 05:02:38;;;;;;;;;;;;;;;7.61;100.00;101519.38;5011992;28;19925;-73
2021/09/30 05:05:04;;;;;;;;;;;;;;;7.61;100.00;101515.81;5011966;28;19933;-72
2021/09/30 05:07:31;;;;;;;;;;;;;;;7.62;100.00;101521.13;5011970;28;19956;-72
2021/09/30 05:10:01;;;;;;;;;;;;;;;7.59;100.00;101523.13;5012052;28;20056;-72
2021/09/30 05:12:30;;;;;;;;;;;;;;;7.62;100.00;101529.22;5011540;28;20419;-72
2021/09/30 05:14:59;;;;;;;;;;;;;;;7.68;100.00;101531.59;5012043;28;19929;-73
2021/09/30 05:17:27;;;;;;;;;;;;;;;7.74;100.00;101524.97;5011502;28;19932;-73
2021/09/30 05:19:56;;;;;;;;;;;;;;;7.82;100.00;101528.09;5011934;28;19932;-73
2021/09/30 05:22:23;;;;;;;;;;;;;;;7.93;100.00;101532.03;5011901;28;20258;-73
2021/09/30 05:24:49;;;;;;;;;;;;;;;8.04;100.00;101529.56;5012617;28;19965;-73
2021/09/30 05:27:16;;;;;;;;;;;;;;;8.15;100.00;101528.94;5009649;28;19980;-73
2021/09/30 05:29:42;;;;;;;;;;;;;;;8.26;100.00;101529.22;5009740;28;19933;-73
2021/09/30 05:32:12;;;;;;;;;;;;;;;8.38;100.00;101522.19;5005821;28;20012;-73
2021/09/30 05:35:00;;;;;;;;;;;;;;;8.64;100.00;101534.19;4990820;28;19932;-73
2021/09/30 05:37:38;;;;;;;;;;;;;;;8.98;100.00;101528.53;4991409;28;19933;-73
2021/09/30 05:40:05;;;;;;;;;;;;;;;9.24;100.00;101524.22;4991698;28;19937;-73
2021/09/30 05:42:31;;;;;;;;;;;;;;;9.59;100.00;101528.38;5001279;28;19934;-73
2021/09/30 05:44:59;;;;;;;;;;;;;;;9.91;100.00;101533.53;5016369;28;20043;-73
2021/09/30 05:47:27;;;;;;;;;;;;;;;10.12;100.00;101536.69;4996295;28;20021;-73
2021/09/30 05:49:53;;;;;;;;;;;;;;;10.14;100.00;101540.16;5002952;28;19929;-72
2021/09/30 05:52:47;;;;;;;;;;;;;;;10.02;100.00;101542.72;5003428;28;19925;-73
2021/09/30 05:55:32;;;;;;;;;;;;;;;10.01;100.00;101537.41;5007129;28;19957;-73
2021/09/30 05:58:02;;;;;;;;;;;;;;;10.17;100.00;101538.13;4991213;28;19932;-73
2021/09/30 06:00:31;;;;;;;;;;;;;;;10.25;100.00;101547.56;5008123;28;19979;-72
2021/09/30 06:11:26;;;;;;;;;;;;;;;9.95;100.00;101554.91;5002160;28;19937;-74
2021/09/30 06:13:57;;;;;;;;;;;;;;;10.04;100.00;101567.03;5005116;28;20361;-73
2021/09/30 06:16:26;;;;;;;;;;;;;;;10.11;100.00;101565.63;5003910;28;19934;-73
2021/09/30 06:19:01;;;;;;;;;;;;;;;10.19;100.00;101571.41;5007316;28;20025;-73
2021/09/30 06:21:32;;;;;;;;;;;;;;;10.09;100.00;101573.03;4994134;28;20301;-73
2021/09/30 06:23:58;;;;;;;;;;;;;;;9.97;100.00;101571.97;5007599;28;19969;-73
2021/09/30 06:26:27;;;;;;;;;;;;;;;9.93;100.00;101574.97;5009987;28;19972;-73
2021/09/30 06:29:09;;;;;;;;;;;;;;;9.80;100.00;101573.06;5005977;28;20059;-73
2021/09/30 06:31:35;;;;;;;;;;;;;;;9.66;100.00;101573.06;4993236;28;19957;-73
2021/09/30 06:34:21;;;;;;;;;;;;;;;9.56;100.00;101572.81;4991209;28;20048;-73
2021/09/30 06:36:57;;;;;;;;;;;;;;;9.57;100.00;101581.78;4998038;28;20439;-73
2021/09/30 06:39:23;;;;;;;;;;;;;;;9.55;100.00;101576.47;5001877;28;20034;-74
2021/09/30 06:41:50;;;;;;;;;;;;;;;9.52;100.00;101582.97;4990938;28;19926;-73
2021/09/30 06:44:35;;;;;;;;;;;;;;;9.51;100.00;101580.34;5005818;28;19947;-72
2021/09/30 06:47:19;;;;;;;;;;;;;;;9.57;100.00;101588.09;5010275;28;19926;-72
2021/09/30 06:49:47;;;;;;;;;;;;;;;9.56;100.00;101591.78;5008876;28;19925;-72
2021/09/30 06:52:32;;;;;;;;;;;;;;;9.61;100.00;101591.50;4999386;28;19929;-73
2021/09/30 06:55:08;;;;;;;;;;;;;;;9.65;100.00;101593.06;4994025;28;19933;-73
2021/09/30 06:58:03;;;;;;;;;;;;;;;9.69;100.00;101589.16;4979406;28;20405;-73
2021/09/30 07:00:56;;;;;;;;;;;;;;;9.69;100.00;101600.88;5003561;28;19925;-73
2021/09/30 07:03:45;;;;;;;;;;;;;;;9.72;100.00;101583.53;5008092;28;20300;-74
2021/09/30 07:06:22;;;;;;;;;;;;;;;9.70;100.00;101596.31;5009723;28;20112;-73
2021/09/30 07:08:48;;;;;;;;;;;;;;;9.69;100.00;101600.00;5009767;28;19929;-73
2021/09/30 07:11:15;;;;;;;;;;;;;;;9.67;100.00;101602.81;5009598;28;20309;-73
2021/09/30 07:13:41;;;;;;;;;;;;;;;9.65;100.00;101603.91;5011202;28;20032;-71
2021/09/30 07:16:07;;;;;;;;;;;;;;;9.63;100.00;101608.53;5009609;28;19956;-71
2021/09/30 07:18:34;;;;;;;;;;;;;;;9.66;100.00;101605.59;4991645;28;19926;-71
2021/09/30 07:21:00;;;;;;;;;;;;;;;9.67;100.00;101610.97;4990845;28;20016;-71
2021/09/30 07:23:28;;;;;;;;;;;;;;;9.70;100.00;101610.75;4994248;28;19980;-71
2021/09/30 07:25:54;;;;;;;;;;;;;;;9.73;100.00;101609.69;5006765;28;19956;-71
2021/09/30 07:28:21;;;;;;;;;;;;;;;9.78;100.00;101625.66;5000129;28;20352;-71
2021/09/30 07:30:47;;;;;;;;;;;;;;;9.80;100.00;101613.75;5008703;28;20372;-71
2021/09/30 07:33:14;;;;;;;;;;;;;;;9.87;100.00;101625.06;5010578;28;20045;-71
2021/09/30 07:35:40;;;;;;;;;;;;;;;9.92;100.00;101622.94;5001338;28;19925;-71
2021/09/30 07:38:06;;;;;;;;;;;;;;;9.98;100.00;101627.09;5003590;28;19964;-71
2021/09/30 07:40:34;;;;;;;;;;;;;;;10.00;100.00;101630.59;5021681;28;20016;-72
2021/09/30 07:43:00;;;;;;;;;;;;;;;10.04;100.00;101624.00;5007609;28;20025;-72
2021/09/30 07:45:27;;;;;;;;;;;;;;;10.07;100.00;101631.91;5014137;28;20111;-72
2021/09/30 07:47:53;;;;;;;;;;;;;;;10.05;100.00;101628.44;5013482;28;20115;-71
2021/09/30 07:50:20;;;;;;;;;;;;;;;10.07;100.00;101633.78;5014472;28;19995;-72
2021/09/30 07:52:46;;;;;;;;;;;;;;;10.05;100.00;101628.44;5012682;28;20073;-72
2021/09/30 07:55:12;;;;;;;;;;;;;;;10.06;100.00;101638.31;5014183;28;19926;-72
2021/09/30 07:57:40;;;;;;;;;;;;;;;10.12;100.00;101639.78;5017620;28;19965;-71
2021/09/30 08:00:07;;;;;;;;;;;;;;;10.16;100.00;101644.88;5014138;28;20024;-71
2021/09/30 08:02:38;;;;;;;;;;;;;;;10.18;100.00;101636.66;5006229;28;20389;-72
2021/09/30 08:05:05;;;;;;;;;;;;;;;10.15;100.00;101648.56;4994603;28;19973;-72
2021/09/30 08:07:31;;;;;;;;;;;;;;;10.25;100.00;101645.25;5001372;28;20461;-72
2021/09/30 08:09:57;;;;;;;;;;;;;;;10.32;100.00;101647.47;5003136;28;20020;-72
2021/09/30 08:12:25;;;;;;;;;;;;;;;10.41;100.00;101650.59;5014424;28;20023;-72
2021/09/30 08:14:53;;;;;;;;;;;;;;;10.46;100.00;101648.44;5006318;28;19967;-72
2021/09/30 08:17:19;;;;;;;;;;;;;;;10.52;100.00;101650.75;5012333;28;19979;-71
2021/09/30 08:19:46;;;;;;;;;;;;;;;10.62;100.00;101653.72;5009320;28;19973;-72
2021/09/30 08:22:12;;;;;;;;;;;;;;;10.66;100.00;101647.13;4994776;28;20380;-72
2021/09/30 08:24:38;;;;;;;;;;;;;;;10.80;100.00;101654.34;5003367;28;20020;-71
2021/09/30 08:27:04;;;;;;;;;;;;;;;11.00;100.00;101664.72;4999860;28;20016;-72
2021/09/30 08:29:32;;;;;;;;;;;;;;;11.20;100.00;101659.78;4994456;28;20457;-72
2021/09/30 08:31:59;;;;;;;;;;;;;;;11.21;100.00;101642.47;5007244;28;19933;-73
2021/09/30 08:34:26;;;;;;;;;;;;;;;11.37;100.00;101651.31;5000784;28;20403;-72
2021/09/30 08:36:52;;;;;;;;;;;;;;;11.80;100.00;101661.00;5006976;28;20012;-72
2021/09/30 08:39:18;;;;;;;;;;;;;;;12.65;100.00;101664.84;5003617;28;19949;-72
2021/09/30 08:41:44;;;;;;;;;;;;;;;13.18;100.00;101656.28;5007235;28;20036;-72
2021/09/30 08:44:11;;;;;;;;;;;;;;;13.60;100.00;101669.44;5012691;28;19960;-72
2021/09/30 08:46:37;;;;;;;;;;;;;;;13.29;100.00;101658.16;4996989;28;19969;-72
2021/09/30 08:49:05;;;;;;;;;;;;;;;13.19;100.00;101674.38;5006488;28;20008;-72
2021/09/30 08:51:31;;;;;;;;;;;;;;;12.84;100.00;101664.31;5002016;28;20028;-72
2021/09/30 08:53:57;;;;;;;;;;;;;;;12.46;100.00;101677.09;4994184;28;19930;-72
2021/09/30 08:56:24;;;;;;;;;;;;;;;12.04;100.00;101665.69;5011511;28;20041;-71
2021/09/30 08:58:51;;;;;;;;;;;;;;;11.78;100.00;101673.81;5011516;28;20038;-71
2021/09/30 09:01:18;;;;;;;;;;;;;;;11.75;100.00;101684.94;5001052;28;19969;-72
2021/09/30 09:03:45;;;;;;;;;;;;;;;11.75;100.00;101695.81;5000696;28;20016;-72
2021/09/30 09:06:27;;;;;;;;;;;;;;;11.68;100.00;101689.06;4995527;28;19980;-72
2021/09/30 09:08:57;;;;;;;;;;;;;;;11.73;100.00;101684.16;4993901;28;20009;-72
2021/09/30 09:11:26;;;;;;;;;;;;;;;11.80;100.00;101687.31;4996317;28;20012;-72
2021/09/30 09:13:54;;;;;;;;;;;;;;;11.81;100.00;101695.38;4999512;28;20032;-72
2021/09/30 09:16:24;;;;;;;;;;;;;;;11.70;100.00;101679.84;4993468;28;20012;-72
2021/09/30 09:18:51;;;;;;;;;;;;;;;11.58;100.00;101683.41;5000739;28;20033;-72
2021/09/30 09:21:22;;;;;;;;;;;;;;;11.60;100.00;101688.72;5012759;28;19976;-72
2021/09/30 09:23:53;;;;;;;;;;;;;;;11.53;100.00;101689.16;5005749;28;20034;-72
2021/09/30 09:26:20;;;;;;;;;;;;;;;11.62;100.00;101694.94;4995318;28;19953;-72
2021/09/30 09:29:01;;;;;;;;;;;;;;;11.66;100.00;101682.84;4999706;28;20024;-72
2021/09/30 09:31:32;;;;;;;;;;;;;;;11.65;100.00;101697.44;5009990;28;19932;-72
2021/09/30 09:34:15;;;;;;;;;;;;;;;11.71;100.00;101703.31;5012448;28;20344;-72
2021/09/30 09:36:43;;;;;;;;;;;;;;;11.84;100.00;101697.03;5004309;28;20016;-72
2021/09/30 09:39:09;;;;;;;;;;;;;;;12.08;100.00;101694.41;5025776;28;20291;-73
2021/09/30 09:41:35;;;;;;;;;;;;;;;12.23;100.00;101697.88;5011847;28;20019;-72
2021/09/30 09:44:04;;;;;;;;;;;;;;;12.56;100.00;101699.97;5012121;28;19960;-72
2021/09/30 09:46:31;;;;;;;;;;;;;;;12.77;100.00;101707.50;5007569;28;19971;-71
2021/09/30 09:48:59;;;;;;;;;;;;;;;13.22;100.00;101696.81;5011731;28;20389;-72
2021/09/30 09:51:26;;;;;;;;;;;;;;;13.58;100.00;101696.81;5011505;28;19980;-72
2021/09/30 09:53:56;;;;;;;;;;;;;;;14.01;100.00;101689.81;5028268;28;19929;-71
2021/09/30 09:56:23;;;;;;;;;;;;;;;13.97;100.00;101696.50;5014272;28;20020;-72
2021/09/30 09:58:50;;;;;;;;;;;;;;;14.28;100.00;101707.66;5012001;28;19930;-72
2021/09/30 10:01:20;;;;;;;;;;;;;;;14.73;100.00;101707.63;4996836;28;19932;-72
2021/09/30 10:03:52;;;;;;;;;;;;;;;14.94;100.00;101715.03;4992299;28;19926;-72
2021/09/30 10:06:19;;;;;;;;;;;;;;;14.96;100.00;101715.78;5003547;28;19948;-71
2021/09/30 10:08:45;;;;;;;;;;;;;;;15.12;100.00;101716.19;5005914;28;20115;-71
2021/09/30 10:11:13;;;;;;;;;;;;;;;15.33;100.00;101713.50;5011883;28;20009;-71
2021/09/30 10:13:40;;;;;;;;;;;;;;;15.38;100.00;101729.53;5011837;28;19957;-70
2021/09/30 10:16:07;;;;;;;;;;;;;;;14.94;100.00;101712.28;5010562;28;20380;-71
2021/09/30 10:18:33;;;;;;;;;;;;;;;15.53;100.00;101717.25;5005967;28;20028;-71
2021/09/30 10:20:59;;;;;;;;;;;;;;;15.76;100.00;101716.25;5003538;28;20020;-71
2021/09/30 10:23:27;;;;;;;;;;;;;;;16.23;100.00;101706.59;5011875;28;19925;-71
2021/09/30 10:25:54;;;;;;;;;;;;;;;16.41;100.00;101708.66;5010775;28;19976;-71
2021/09/30 10:28:22;;;;;;;;;;;;;;;16.46;100.00;101706.38;5001041;28;20027;-72
2021/09/30 10:30:49;;;;;;;;;;;;;;;16.24;100.00;101710.19;5005754;28;20024;-72
2021/09/30 10:33:19;;;;;;;;;;;;;;;16.13;100.00;101727.59;5010612;28;19925;-72
2021/09/30 10:35:47;;;;;;;;;;;;;;;16.00;100.00;101722.31;5007308;28;20024;-72
2021/09/30 10:38:17;;;;;;;;;;;;;;;16.04;100.00;101725.66;4993154;28;20304;-72
2021/09/30 10:41:02;;;;;;;;;;;;;;;16.09;100.00;101726.13;5000116;28;19968;-72
2021/09/30 10:43:31;;;;;;;;;;;;;;;16.02;100.00;101725.81;4994104;28;20004;-72
2021/09/30 10:45:58;;;;;;;;;;;;;;;15.71;100.00;101719.38;4993876;28;20353;-72
2021/09/30 10:48:40;;;;;;;;;;;;;;;15.49;100.00;101723.13;5009757;28;19965;-72
2021/09/30 10:51:08;;;;;;;;;;;;;;;15.30;100.00;101734.78;5006834;28;19925;-72
2021/09/30 10:53:56;;;;;;;;;;;;;;;15.31;100.00;101736.50;4992835;28;20040;-72
2021/09/30 10:56:41;;;;;;;;;;;;;;;15.12;100.00;101727.13;4992010;28;20036;-69
2021/09/30 10:59:37;;;;;;;;;;;;;;;14.88;100.00;101730.09;4994264;28;19929;-68
2021/09/30 11:02:04;;;;;;;;;;;;;;;14.67;100.00;101735.47;5003622;28;20370;-68
2021/09/30 11:04:51;;;;;;;;;;;;;;;14.40;100.00;101720.31;4995556;28;19976;-69
2021/09/30 11:07:17;;;;;;;;;;;;;;;14.33;100.00;101728.16;4994025;28;20016;-68
2021/09/30 11:10:10;;;;;;;;;;;;;;;14.42;100.00;101729.28;5008909;28;20025;-68
2021/09/30 11:12:37;;;;;;;;;;;;;;;14.48;100.00;101734.22;5033370;28;20028;-68
2021/09/30 11:15:03;;;;;;;;;;;;;;;14.61;100.00;101727.75;5013335;28;19926;-68
2021/09/30 11:17:35;;;;;;;;;;;;;;;14.66;100.00;101731.88;4994967;28;20024;-68
2021/09/30 11:20:16;;;;;;;;;;;;;;;14.76;100.00;101731.13;5011858;28;19925;-68
2021/09/30 11:22:43;;;;;;;;;;;;;;;14.71;100.00;101728.75;5016121;28;19980;-74
2021/09/30 11:25:11;;;;;;;;;;;;;;;14.59;100.00;101729.75;4996418;28;20356;-74
2021/09/30 11:27:37;;;;;;;;;;;;;;;14.54;100.00;101730.13;5011389;28;20023;-74
2021/09/30 11:30:20;;;;;;;;;;;;;;;14.59;100.00;101737.94;5009837;28;20016;-74
2021/09/30 11:32:49;;;;;;;;;;;;;;;14.36;100.00;101738.84;4995340;28;19957;-74
2021/09/30 11:35:15;;;;;;;;;;;;;;;14.32;100.00;101733.75;4995064;28;19927;-74
2021/09/30 11:37:43;;;;;;;;;;;;;;;14.28;100.00;101722.19;5011794;28;19929;-74
2021/09/30 11:40:17;;;;;;;;;;;;;;;14.28;100.00;101715.88;5006007;28;20341;-73
2021/09/30 11:42:45;;;;;;;;;;;;;;;14.31;100.00;101718.34;5010829;28;19929;-74
2021/09/30 11:45:13;;;;;;;;;;;;;;;14.23;100.00;101725.31;5002646;28;19930;-74
2021/09/30 11:47:40;;;;;;;;;;;;;;;14.33;100.00;101719.94;5002891;28;19965;-74
2021/09/30 11:50:14;;;;;;;;;;;;;;;14.49;100.00;101727.75;5000355;28;19930;-74
2021/09/30 11:52:41;;;;;;;;;;;;;;;14.80;100.00;101733.44;4994878;28;19958;-74
2021/09/30 11:55:12;;;;;;;;;;;;;;;15.10;100.00;101733.72;4994641;28;19969;-74
2021/09/30 11:57:39;;;;;;;;;;;;;;;15.52;100.00;101728.34;4992622;28;20008;-74
2021/09/30 12:00:09;;;;;;;;;;;;;;;15.76;100.00;101719.00;5008323;28;19965;-75
2021/09/30 12:02:38;;;;;;;;;;;;;;;16.38;100.00;101722.63;5014057;28;19925;-74
2021/09/30 12:05:05;;;;;;;;;;;;;;;16.61;100.00;101715.06;5008584;28;20019;-74
2021/09/30 12:07:33;;;;;;;;;;;;;;;16.42;100.00;101715.84;5015875;28;20030;-74
2021/09/30 12:10:00;;;;;;;;;;;;;;;17.12;100.00;101715.03;4999747;28;19926;-74
2021/09/30 12:12:27;;;;;;;;;;;;;;;17.39;100.00;101706.94;5000116;28;19960;-76
2021/09/30 12:14:55;;;;;;;;;;;;;;;17.15;100.00;101710.13;4998994;28;20033;-74
2021/09/30 12:17:22;;;;;;;;;;;;;;;16.77;100.00;101705.41;4997139;28;19929;-74
2021/09/30 12:19:49;;;;;;;;;;;;;;;16.52;100.00;101704.94;4994611;28;20024;-74
2021/09/30 12:22:16;;;;;;;;;;;;;;;16.69;100.00;101695.19;5002726;28;19949;-74
2021/09/30 12:24:46;;;;;;;;;;;;;;;17.32;100.00;101705.78;5014172;28;20013;-74
2021/09/30 12:27:12;;;;;;;;;;;;;;;17.04;100.00;101700.16;5006435;28;20396;-73
2021/09/30 12:29:39;;;;;;;;;;;;;;;16.64;100.00;101701.06;4993932;28;19933;-73
2021/09/30 12:32:07;;;;;;;;;;;;;;;16.18;100.00;101708.88;4998100;28;20024;-74
2021/09/30 12:34:33;;;;;;;;;;;;;;;15.84;100.00;101717.34;4998575;28;19983;-75
2021/09/30 12:37:00;;;;;;;;;;;;;;;15.51;100.00;101705.59;5011597;28;20403;-75
2021/09/30 12:39:27;;;;;;;;;;;;;;;15.13;100.00;101707.00;5012942;28;19933;-74
2021/09/30 12:41:56;;;;;;;;;;;;;;;15.03;100.00;101714.25;5013112;28;19973;-74
2021/09/30 12:44:22;;;;;;;;;;;;;;;15.00;100.00;101711.78;5007022;28;20028;-73
2021/09/30 12:46:51;;;;;;;;;;;;;;;15.08;100.00;101714.72;4993419;28;19957;-74
2021/09/30 12:49:19;;;;;;;;;;;;;;;15.17;100.00;101713.94;4993676;28;19930;-67
2021/09/30 12:51:46;;;;;;;;;;;;;;;15.75;100.00;101709.91;4999601;28;20004;-67
2021/09/30 12:54:12;;;;;;;;;;;;;;;15.93;100.00;101706.56;5002040;28;20387;-67
2021/09/30 12:56:40;;;;;;;;;;;;;;;15.86;100.00;101707.13;4991766;28;20123;-69
2021/09/30 12:59:12;;;;;;;;;;;;;;;15.88;100.00;101705.09;4992377;28;19930;-69
2021/09/30 13:01:38;;;;;;;;;;;;;;;16.24;100.00;101710.19;4993094;28;19932;-70
2021/09/30 13:04:09;;;;;;;;;;;;;;;16.68;100.00;101704.41;4993452;28;19972;-69
2021/09/30 13:06:35;;;;;;;;;;;;;;;16.58;100.00;101704.38;5002562;28;20455;-75
2021/09/30 13:09:02;;;;;;;;;;;;;;;16.45;100.00;101692.78;5007191;28;19961;-69
2021/09/30 13:11:30;;;;;;;;;;;;;;;16.24;100.00;101696.50;4992029;28;19992;-69
2021/09/30 13:14:18;;;;;;;;;;;;;;;16.66;100.00;101690.84;4997036;28;20377;-69
2021/09/30 13:16:46;;;;;;;;;;;;;;;17.89;100.00;101692.09;5012861;28;20393;-68
2021/09/30 13:19:13;;;;;;;;;;;;;;;18.81;97.62;101686.72;5006328;28;20024;-74
2021/09/30 13:21:54;;;;;;;;;;;;;;;18.93;94.22;101678.31;4993173;28;19926;-75
2021/09/30 13:24:20;;;;;;;;;;;;;;;18.10;96.45;101687.44;4999043;28;20008;-75
2021/09/30 13:26:46;;;;;;;;;;;;;;;17.56;100.00;101682.50;5008377;28;19934;-75
2021/09/30 13:29:12;;;;;;;;;;;;;;;17.74;100.00;101686.22;5011490;28;20020;-75
2021/09/30 13:31:40;;;;;;;;;;;;;;;17.69;100.00;101665.69;4993951;28;20028;-70
2021/09/30 13:34:06;;;;;;;;;;;;;;;18.12;100.00;101686.28;4996753;28;20024;-68
2021/09/30 13:36:33;;;;;;;;;;;;;;;18.39;94.85;101690.06;5005711;28;20021;-68
2021/09/30 13:38:59;;;;;;;;;;;;;;;18.29;94.57;101694.72;4995064;28;20025;-75
2021/09/30 13:41:26;;;;;;;;;;;;;;;18.20;94.75;101691.03;5012191;28;19932;-75
2021/09/30 13:43:52;;;;;;;;;;;;;;;18.26;94.60;101684.91;5010371;28;20416;-74
2021/09/30 13:46:19;;;;;;;;;;;;;;;18.60;93.81;101697.16;5006279;28;20165;-74
2021/09/30 13:48:46;;;;;;;;;;;;;;;19.00;88.46;101688.53;4996140;28;20412;-74
2021/09/30 13:51:13;;;;;;;;;;;;;;;18.64;90.35;101693.06;5000924;28;19984;-74
2021/09/30 13:53:39;;;;;;;;;;;;;;;18.28;92.72;101692.97;5008443;28;19961;-74
2021/09/30 13:56:05;;;;;;;;;;;;;;;18.64;94.59;101690.31;5015430;28;20464;-74
2021/09/30 13:58:32;;;;;;;;;;;;;;;19.44;90.57;101689.59;5013152;28;20013;-74
2021/09/30 14:00:59;;;;;;;;;;;;;;;18.53;87.46;101691.41;5011824;28;19936;-75
2021/09/30 14:03:25;;;;;;;;;;;;;;;17.94;93.47;101688.06;4996090;28;20013;-74
2021/09/30 14:05:53;;;;;;;;;;;;;;;17.19;98.83;101691.50;5011962;28;19952;-74
2021/09/30 14:08:19;;;;;;;;;;;;;;;16.45;100.00;101673.63;4999357;28;20016;-74
2021/09/30 14:10:46;;;;;;;;;;;;;;;16.55;100.00;101688.22;5012236;28;20343;-74
2021/09/30 14:13:16;;;;;;;;;;;;;;;17.65;100.00;101683.50;5011749;28;19965;-73
2021/09/30 14:15:42;;;;;;;;;;;;;;;18.43;96.11;101679.63;5009838;28;19992;-73
2021/09/30 14:18:09;;;;;;;;;;;;;;;18.97;88.99;101682.47;4993218;28;19934;-73
2021/09/30 14:20:35;;;;;;;;;;;;;;;19.35;82.76;101688.66;5010930;28;19926;-72
2021/09/30 14:23:04;;;;;;;;;;;;;;;19.43;80.01;101691.50;5011257;28;19960;-73
2021/09/30 14:25:30;;;;;;;;;;;;;;;19.39;75.62;101684.56;5011362;28;19976;-73
2021/09/30 14:27:56;;;;;;;;;;;;;;;19.47;78.80;101686.50;4991581;28;20024;-73
2021/09/30 14:30:23;;;;;;;;;;;;;;;19.38;81.78;101691.94;4992271;28;20733;-73
2021/09/30 14:32:51;;;;;;;;;;;;;;;19.94;80.88;101683.44;5010322;28;20008;-74
2021/09/30 14:35:18;;;;;;;;;;;;;;;19.65;74.27;101684.56;5009320;28;19930;-75
2021/09/30 14:37:44;;;;;;;;;;;;;;;19.65;75.03;101690.09;5001729;28;20420;-74
2021/09/30 14:40:13;;;;;;;;;;;;;;;19.63;77.70;101683.91;5010534;28;20261;-75
2021/09/30 14:42:40;;;;;;;;;;;;;;;18.89;74.76;101689.63;5010374;28;20369;-74
2021/09/30 14:45:06;;;;;;;;;;;;;;;17.69;81.20;101677.56;5001131;28;19964;-74
2021/09/30 14:47:33;;;;;;;;;;;;;;;17.65;94.67;101691.72;4998677;28;20397;-74
2021/09/30 14:49:59;;;;;;;;;;;;;;;17.82;86.75;101681.88;4992099;28;19968;-74
2021/09/30 14:52:26;;;;;;;;;;;;;;;18.15;84.81;101676.88;4992002;28;19965;-73
2021/09/30 14:54:52;;;;;;;;;;;;;;;18.73;85.75;101681.16;4992489;28;19926;-73
2021/09/30 14:57:20;;;;;;;;;;;;;;;17.94;85.83;101679.84;4997271;28;20035;-73
2021/09/30 14:59:46;;;;;;;;;;;;;;;17.14;88.72;101683.69;4999238;28;19957;-73
2021/09/30 15:02:13;;;;;;;;;;;;;;;16.28;96.91;101680.66;5011103;28;19976;-73
2021/09/30 15:04:39;;;;;;;;;;;;;;;16.21;97.83;101681.19;4990815;28;20033;-74